sensor_id;sensor_type;location;lat;lon;timestamp;pressure;altitude;pressure_sealevel;temperature;humidity
63090;BME280;49174;43.198;27.824;2023-06-24T00:01:26;101655.72;;;18.55;100.00
63090;BME280;49174;43.198;27.824;2023-06-24T00:03:52;101651.69;;;18.58;100.00
63090;BME280;49174;43.198;27.824;2023-06-24T00:06:19;101650.66;;;18.59;100.00
63090;BME280;49174;43.198;27.824;2023-06-24T00:08:45;101639.25;;;18.62;100.00
63090;BME280;49174;43.198;27.824;2023-06-24T00:11:11;101638.44;;;18.61;100.00
63090;BME280;49174;43.198;27.824;2023-06-24T00:13:39;101634.63;;;18.62;100.00
63090;BME280;49174;43.198;27.824;2023-06-24T00:16:04;101643.66;;;18.63;100.00
63090;BME280;49174;43.198;27.824;2023-06-24T00:18:32;101636.53;;;18.62;100.00
63090;BME280;49174;43.198;27.824;2023-06-24T00:20:57;101637.38;;;18.62;100.00
63090;BME280;49174;43.198;27.824;2023-06-24T00:23:23;101638.19;;;18.63;100.00
63090;BME280;49174;43.198;27.824;2023-06-24T00:25:52;101639.25;;;18.62;100.00
63090;BME280;49174;43.198;27.824;2023-06-24T00:28:18;101639.25;;;18.62;100.00
63090;BME280;49174;43.198;27.824;2023-06-24T00:30:44;101646.41;;;18.63;100.00
63090;BME280;49174;43.198;27.824;2023-06-24T00:33:09;101636.75;;;18.60;100.00
63090;BME280;49174;43.198;27.824;2023-06-24T00:35:37;101626.28;;;18.57;100.00
63090;BME280;49174;43.198;27.824;2023-06-24T00:38:03;101628.19;;;18.57;100.00
63090;BME280;49174;43.198;27.824;2023-06-24T00:40:29;101622.94;;;18.55;100.00
63090;BME280;49174;43.198;27.824;2023-06-24T00:42:55;101627.56;;;18.54;100.00
63090;BME280;49174;43.198;27.824;2023-06-24T00:45:24;101615.81;;;18.54;100.00
63090;BME280;49174;43.198;27.824;2023-06-24T00:47:51;101625.66;;;18.55;100.00
63090;BME280;49174;43.198;27.824;2023-06-24T00:50:17;101624.63;;;18.56;100.00
63090;BME280;49174;43.198;27.824;2023-06-24T00:52:43;101631.75;;;18.57;100.00
63090;BME280;49174;43.198;27.824;2023-06-24T00:55:10;101633.19;;;18.60;100.00
63090;BME280;49174;43.198;27.824;2023-06-24T00:57:39;101622.47;;;18.58;100.00
63090;BME280;49174;43.198;27.824;2023-06-24T01:00:05;101618.69;;;18.59;100.00
63090;BME280;49174;43.198;27.824;2023-06-24T01:02:37;101629.00;;;18.57;100.00
63090;BME280;49174;43.198;27.824;2023-06-24T01:05:04;101628.69;;;18.47;100.00
63090;BME280;49174;43.198;27.824;2023-06-24T01:07:31;101620.84;;;18.39;100.00
63090;BME280;49174;43.198;27.824;2023-06-24T01:09:57;101610.41;;;18.29;100.00
63090;BME280;49174;43.198;27.824;2023-06-24T01:12:23;101614.88;;;18.23;100.00
63090;BME280;49174;43.198;27.824;2023-06-24T01:14:48;101615.34;;;18.20;100.00
63090;BME280;49174;43.198;27.824;2023-06-24T01:17:24;101604.72;;;18.12;100.00
63090;BME280;49174;43.198;27.824;2023-06-24T01:28:08;101596.34;;;17.89;100.00
63090;BME280;49174;43.198;27.824;2023-06-24T01:30:52;101593.47;;;17.83;100.00
63090;BME280;49174;43.198;27.824;2023-06-24T01:33:26;101593.91;;;17.74;100.00
63090;BME280;49174;43.198;27.824;2023-06-24T01:35:57;101589.75;;;17.71;100.00
63090;BME280;49174;43.198;27.824;2023-06-24T01:38:35;101586.63;;;17.68;100.00
63090;BME280;49174;43.198;27.824;2023-06-24T01:41:03;101586.25;;;17.64;100.00
63090;BME280;49174;43.198;27.824;2023-06-24T01:43:31;101585.41;;;17.63;100.00
63090;BME280;49174;43.198;27.824;2023-06-24T01:45:58;101588.34;;;17.62;100.00
63090;BME280;49174;43.198;27.824;2023-06-24T01:48:27;101584.63;;;17.56;100.00
63090;BME280;49174;43.198;27.824;2023-06-24T01:53:20;101590.56;;;17.47;100.00
63090;BME280;49174;43.198;27.824;2023-06-24T01:55:48;101587.84;;;17.47;100.00
63090;BME280;49174;43.198;27.824;2023-06-24T01:58:16;101589.28;;;17.49;100.00
63090;BME280;49174;43.198;27.824;2023-06-24T02:00:43;101584.53;;;17.45;100.00
63090;BME280;49174;43.198;27.824;2023-06-24T02:03:09;101591.00;;;17.43;100.00
63090;BME280;49174;43.198;27.824;2023-06-24T02:05:36;101587.53;;;17.36;100.00
63090;BME280;49174;43.198;27.824;2023-06-24T02:08:07;101592.41;;;17.28;100.00
63090;BME280;49174;43.198;27.824;2023-06-24T02:10:35;101591.84;;;17.19;100.00
63090;BME280;49174;43.198;27.824;2023-06-24T02:13:02;101593.13;;;17.16;100.00
63090;BME280;49174;43.198;27.824;2023-06-24T02:15:29;101591.03;;;17.12;100.00
63090;BME280;49174;43.198;27.824;2023-06-24T02:17:55;101596.94;;;17.09;100.00
63090;BME280;49174;43.198;27.824;2023-06-24T02:20:22;101602.38;;;17.09;100.00
63090;BME280;49174;43.198;27.824;2023-06-24T02:22:53;101608.03;;;17.07;100.00
63090;BME280;49174;43.198;27.824;2023-06-24T02:25:20;101608.28;;;17.06;100.00
63090;BME280;49174;43.198;27.824;2023-06-24T02:27:45;101616.91;;;17.03;100.00
63090;BME280;49174;43.198;27.824;2023-06-24T02:30:12;101609.75;;;17.02;100.00
63090;BME280;49174;43.198;27.824;2023-06-24T02:32:38;101610.81;;;17.01;100.00
63090;BME280;49174;43.198;27.824;2023-06-24T02:35:04;101629.06;;;17.00;100.00
63090;BME280;49174;43.198;27.824;2023-06-24T02:37:30;101627.19;;;17.01;100.00
63090;BME280;49174;43.198;27.824;2023-06-24T02:39:56;101620.28;;;16.98;100.00
63090;BME280;49174;43.198;27.824;2023-06-24T02:42:22;101630.16;;;16.92;100.00
63090;BME280;49174;43.198;27.824;2023-06-24T02:44:48;101628.06;;;16.88;100.00
63090;BME280;49174;43.198;27.824;2023-06-24T02:47:14;101627.69;;;16.84;100.00
63090;BME280;49174;43.198;27.824;2023-06-24T02:49:42;101625.81;;;16.78;100.00
63090;BME280;49174;43.198;27.824;2023-06-24T02:52:12;101633.38;;;16.69;100.00
63090;BME280;49174;43.198;27.824;2023-06-24T02:54:38;101628.56;;;16.65;100.00
63090;BME280;49174;43.198;27.824;2023-06-24T02:57:05;101629.41;;;16.72;100.00
63090;BME280;49174;43.198;27.824;2023-06-24T02:59:32;101629.78;;;16.75;100.00
63090;BME280;49174;43.198;27.824;2023-06-24T03:01:58;101632.72;;;16.74;100.00
63090;BME280;49174;43.198;27.824;2023-06-24T03:04:25;101623.50;;;16.68;100.00
63090;BME280;49174;43.198;27.824;2023-06-24T03:06:51;101630.22;;;16.66;100.00
63090;BME280;49174;43.198;27.824;2023-06-24T03:09:18;101628.13;;;16.68;100.00
63090;BME280;49174;43.198;27.824;2023-06-24T03:11:44;101634.84;;;16.72;100.00
63090;BME280;49174;43.198;27.824;2023-06-24T03:14:10;101637.78;;;16.77;100.00
63090;BME280;49174;43.198;27.824;2023-06-24T03:16:37;101636.50;;;16.73;100.00
63090;BME280;49174;43.198;27.824;2023-06-24T03:19:05;101649.06;;;16.74;100.00
63090;BME280;49174;43.198;27.824;2023-06-24T03:21:31;101657.25;;;16.74;100.00
63090;BME280;49174;43.198;27.824;2023-06-24T03:23:57;101649.72;;;16.69;100.00
63090;BME280;49174;43.198;27.824;2023-06-24T03:26:34;101653.28;;;16.70;100.00
63090;BME280;49174;43.198;27.824;2023-06-24T03:29:00;101648.66;;;16.70;100.00
63090;BME280;49174;43.198;27.824;2023-06-24T03:31:26;101645.09;;;16.77;100.00
63090;BME280;49174;43.198;27.824;2023-06-24T03:33:52;101647.59;;;16.85;100.00
63090;BME280;49174;43.198;27.824;2023-06-24T03:36:17;101653.03;;;16.91;100.00
63090;BME280;49174;43.198;27.824;2023-06-24T03:38:43;101658.25;;;16.93;100.00
63090;BME280;49174;43.198;27.824;2023-06-24T03:41:08;101664.09;;;16.96;100.00
63090;BME280;49174;43.198;27.824;2023-06-24T03:43:34;101661.34;;;17.03;100.00
63090;BME280;49174;43.198;27.824;2023-06-24T03:45:59;101654.19;;;17.09;100.00
63090;BME280;49174;43.198;27.824;2023-06-24T03:48:25;101659.59;;;17.15;100.00
63090;BME280;49174;43.198;27.824;2023-06-24T03:50:51;101663.53;;;17.26;100.00
63090;BME280;49174;43.198;27.824;2023-06-24T03:53:16;101666.00;;;17.34;100.00
63090;BME280;49174;43.198;27.824;2023-06-24T03:55:42;101665.75;;;17.42;100.00
63090;BME280;49174;43.198;27.824;2023-06-24T03:58:07;101658.38;;;17.50;100.00
63090;BME280;49174;43.198;27.824;2023-06-24T04:00:33;101671.75;;;17.58;100.00
63090;BME280;49174;43.198;27.824;2023-06-24T04:02:59;101669.56;;;17.67;100.00
63090;BME280;49174;43.198;27.824;2023-06-24T04:05:27;101669.50;;;17.73;100.00
63090;BME280;49174;43.198;27.824;2023-06-24T04:07:53;101676.19;;;17.77;100.00
63090;BME280;49174;43.198;27.824;2023-06-24T04:10:18;101669.91;;;17.83;100.00
63090;BME280;49174;43.198;27.824;2023-06-24T04:12:45;101670.28;;;17.87;100.00
63090;BME280;49174;43.198;27.824;2023-06-24T04:15:11;101679.69;;;17.91;100.00
63090;BME280;49174;43.198;27.824;2023-06-24T04:17:36;101685.72;;;18.00;100.00
63090;BME280;49174;43.198;27.824;2023-06-24T04:20:02;101678.47;;;18.12;100.00
63090;BME280;49174;43.198;27.824;2023-06-24T04:22:31;101684.47;;;18.21;100.00
63090;BME280;49174;43.198;27.824;2023-06-24T04:24:56;101685.91;;;18.23;100.00
63090;BME280;49174;43.198;27.824;2023-06-24T04:27:22;101696.38;;;18.26;100.00
63090;BME280;49174;43.198;27.824;2023-06-24T04:29:47;101694.28;;;18.28;100.00
63090;BME280;49174;43.198;27.824;2023-06-24T04:32:13;101698.38;;;18.38;100.00
63090;BME280;49174;43.198;27.824;2023-06-24T04:34:40;101688.44;;;18.43;100.00
63090;BME280;49174;43.198;27.824;2023-06-24T04:37:05;101697.41;;;18.50;100.00
63090;BME280;49174;43.198;27.824;2023-06-24T04:39:35;101700.53;;;18.54;100.00
63090;BME280;49174;43.198;27.824;2023-06-24T04:42:03;101696.66;;;18.62;100.00
63090;BME280;49174;43.198;27.824;2023-06-24T04:44:29;101700.59;;;18.66;100.00
63090;BME280;49174;43.198;27.824;2023-06-24T04:46:54;101701.38;;;18.73;100.00
63090;BME280;49174;43.198;27.824;2023-06-24T04:49:20;101695.63;;;18.81;100.00
63090;BME280;49174;43.198;27.824;2023-06-24T04:51:45;101695.09;;;18.91;100.00
63090;BME280;49174;43.198;27.824;2023-06-24T04:54:11;101694.31;;;19.02;100.00
63090;BME280;49174;43.198;27.824;2023-06-24T04:56:38;101698.84;;;19.08;100.00
63090;BME280;49174;43.198;27.824;2023-06-24T04:59:04;101702.13;;;19.17;100.00
63090;BME280;49174;43.198;27.824;2023-06-24T05:01:29;101706.22;;;19.26;100.00
63090;BME280;49174;43.198;27.824;2023-06-24T05:14:49;101709.44;;;20.19;100.00
63090;BME280;49174;43.198;27.824;2023-06-24T05:17:16;101701.00;;;20.20;100.00
63090;BME280;49174;43.198;27.824;2023-06-24T05:19:41;101692.16;;;20.18;100.00
63090;BME280;49174;43.198;27.824;2023-06-24T05:22:06;101697.28;;;20.26;100.00
63090;BME280;49174;43.198;27.824;2023-06-24T05:24:32;101705.38;;;20.33;100.00
63090;BME280;49174;43.198;27.824;2023-06-24T05:27:04;101705.75;;;20.37;100.00
63090;BME280;49174;43.198;27.824;2023-06-24T05:29:31;101701.81;;;20.44;100.00
63090;BME280;49174;43.198;27.824;2023-06-24T05:31:57;101706.00;;;20.59;100.00
63090;BME280;49174;43.198;27.824;2023-06-24T05:34:22;101702.50;;;20.75;100.00
63090;BME280;49174;43.198;27.824;2023-06-24T05:36:48;101705.00;;;20.88;100.00
63090;BME280;49174;43.198;27.824;2023-06-24T05:39:13;101701.66;;;20.98;100.00
63090;BME280;49174;43.198;27.824;2023-06-24T05:41:39;101708.75;;;21.11;100.00
63090;BME280;49174;43.198;27.824;2023-06-24T05:44:07;101707.38;;;21.25;100.00
63090;BME280;49174;43.198;27.824;2023-06-24T05:46:33;101698.47;;;21.47;100.00
63090;BME280;49174;43.198;27.824;2023-06-24T05:48:59;101697.69;;;21.63;100.00
63090;BME280;49174;43.198;27.824;2023-06-24T05:51:24;101693.03;;;21.80;100.00
63090;BME280;49174;43.198;27.824;2023-06-24T05:53:50;101677.97;;;22.00;100.00
63090;BME280;49174;43.198;27.824;2023-06-24T05:56:15;101690.41;;;22.19;100.00
63090;BME280;49174;43.198;27.824;2023-06-24T05:58:41;101686.28;;;22.39;100.00
63090;BME280;49174;43.198;27.824;2023-06-24T06:01:09;101681.97;;;22.65;100.00
63090;BME280;49174;43.198;27.824;2023-06-24T06:03:35;101679.72;;;22.84;98.57
63090;BME280;49174;43.198;27.824;2023-06-24T06:06:01;101675.00;;;23.01;95.59
63090;BME280;49174;43.198;27.824;2023-06-24T06:08:26;101681.84;;;23.20;94.02
63090;BME280;49174;43.198;27.824;2023-06-24T06:10:52;101690.28;;;23.36;93.36
63090;BME280;49174;43.198;27.824;2023-06-24T06:13:18;101683.53;;;23.54;92.36
63090;BME280;49174;43.198;27.824;2023-06-24T06:15:43;101692.97;;;23.85;90.69
63090;BME280;49174;43.198;27.824;2023-06-24T06:18:09;101679.06;;;24.07;89.93
63090;BME280;49174;43.198;27.824;2023-06-24T06:20:34;101674.28;;;24.29;87.31
63090;BME280;49174;43.198;27.824;2023-06-24T06:23:00;101679.66;;;24.51;86.46
63090;BME280;49174;43.198;27.824;2023-06-24T06:25:25;101676.47;;;24.75;87.43
63090;BME280;49174;43.198;27.824;2023-06-24T06:27:51;101677.66;;;24.94;85.76
63090;BME280;49174;43.198;27.824;2023-06-24T06:30:17;101672.78;;;25.17;82.69
63090;BME280;49174;43.198;27.824;2023-06-24T06:32:43;101668.94;;;25.38;84.03
63090;BME280;49174;43.198;27.824;2023-06-24T06:35:08;101662.31;;;25.45;79.51
63090;BME280;49174;43.198;27.824;2023-06-24T06:37:33;101666.47;;;25.57;78.17
63090;BME280;49174;43.198;27.824;2023-06-24T06:39:59;101666.19;;;25.59;77.67
63090;BME280;49174;43.198;27.824;2023-06-24T06:42:25;101659.88;;;25.84;77.27
63090;BME280;49174;43.198;27.824;2023-06-24T06:44:50;101657.63;;;26.06;76.99
63090;BME280;49174;43.198;27.824;2023-06-24T06:47:16;101663.41;;;26.30;72.49
63090;BME280;49174;43.198;27.824;2023-06-24T06:49:41;101660.03;;;26.54;74.60
63090;BME280;49174;43.198;27.824;2023-06-24T06:52:07;101660.31;;;26.47;72.70
63090;BME280;49174;43.198;27.824;2023-06-24T06:54:35;101650.03;;;26.63;69.06
63090;BME280;49174;43.198;27.824;2023-06-24T06:57:02;101644.78;;;26.67;73.65
63090;BME280;49174;43.198;27.824;2023-06-24T06:59:29;101646.97;;;26.75;74.40
63090;BME280;49174;43.198;27.824;2023-06-24T07:01:55;101641.66;;;26.79;72.05
63090;BME280;49174;43.198;27.824;2023-06-24T07:04:20;101645.78;;;26.91;73.65
63090;BME280;49174;43.198;27.824;2023-06-24T07:06:46;101649.78;;;27.14;73.66
63090;BME280;49174;43.198;27.824;2023-06-24T07:09:11;101637.53;;;27.31;72.87
63090;BME280;49174;43.198;27.824;2023-06-24T07:11:37;101640.09;;;27.56;73.84
63090;BME280;49174;43.198;27.824;2023-06-24T07:14:03;101644.84;;;27.85;70.23
63090;BME280;49174;43.198;27.824;2023-06-24T07:16:28;101655.22;;;28.03;70.51
63090;BME280;49174;43.198;27.824;2023-06-24T07:18:54;101656.19;;;28.18;68.26
63090;BME280;49174;43.198;27.824;2023-06-24T07:21:19;101657.34;;;27.82;65.83
63090;BME280;49174;43.198;27.824;2023-06-24T07:23:45;101655.28;;;27.64;70.64
63090;BME280;49174;43.198;27.824;2023-06-24T07:26:11;101651.72;;;27.58;69.97
63090;BME280;49174;43.198;27.824;2023-06-24T07:28:36;101651.75;;;27.53;71.37
63090;BME280;49174;43.198;27.824;2023-06-24T07:31:02;101652.59;;;27.88;70.81
63090;BME280;49174;43.198;27.824;2023-06-24T07:33:27;101655.56;;;27.97;67.85
63090;BME280;49174;43.198;27.824;2023-06-24T07:35:55;101656.41;;;28.21;67.66
63090;BME280;49174;43.198;27.824;2023-06-24T07:38:21;101653.88;;;28.25;60.49
63090;BME280;49174;43.198;27.824;2023-06-24T07:40:46;101656.47;;;28.45;62.02
63090;BME280;49174;43.198;27.824;2023-06-24T07:43:12;101660.72;;;28.62;62.39
63090;BME280;49174;43.198;27.824;2023-06-24T07:45:38;101658.34;;;28.74;64.53
63090;BME280;49174;43.198;27.824;2023-06-24T07:48:03;101652.50;;;28.94;60.21
63090;BME280;49174;43.198;27.824;2023-06-24T07:50:30;101649.47;;;29.15;55.23
63090;BME280;49174;43.198;27.824;2023-06-24T07:52:57;101650.19;;;29.02;61.67
63090;BME280;49174;43.198;27.824;2023-06-24T07:55:22;101657.06;;;29.28;57.98
63090;BME280;49174;43.198;27.824;2023-06-24T07:57:48;101654.03;;;29.44;52.79
63090;BME280;49174;43.198;27.824;2023-06-24T08:00:14;101649.22;;;29.68;47.38
63090;BME280;49174;43.198;27.824;2023-06-24T08:02:41;101648.59;;;29.71;56.80
63090;BME280;49174;43.198;27.824;2023-06-24T08:05:07;101647.56;;;29.67;59.83
63090;BME280;49174;43.198;27.824;2023-06-24T08:07:34;101643.13;;;29.47;57.17
63090;BME280;49174;43.198;27.824;2023-06-24T08:10:00;101640.47;;;29.56;57.21
63090;BME280;49174;43.198;27.824;2023-06-24T08:12:26;101649.22;;;29.68;57.97
63090;BME280;49174;43.198;27.824;2023-06-24T08:14:51;101647.78;;;29.71;56.64
63090;BME280;49174;43.198;27.824;2023-06-24T08:17:17;101637.47;;;29.71;46.42
63090;BME280;49174;43.198;27.824;2023-06-24T08:19:42;101635.97;;;29.60;53.61
63090;BME280;49174;43.198;27.824;2023-06-24T08:22:08;101643.66;;;29.68;54.58
63090;BME280;49174;43.198;27.824;2023-06-24T08:24:33;101638.88;;;29.88;54.21
63090;BME280;49174;43.198;27.824;2023-06-24T08:26:59;101631.22;;;29.79;54.50
63090;BME280;49174;43.198;27.824;2023-06-24T08:29:24;101630.91;;;29.81;50.41
63090;BME280;49174;43.198;27.824;2023-06-24T08:31:50;101630.44;;;29.93;47.34
63090;BME280;49174;43.198;27.824;2023-06-24T08:34:15;101631.22;;;30.26;48.10
63090;BME280;49174;43.198;27.824;2023-06-24T08:36:41;101624.00;;;30.39;52.66
63090;BME280;49174;43.198;27.824;2023-06-24T08:39:07;101618.81;;;30.60;48.51
63090;BME280;49174;43.198;27.824;2023-06-24T08:41:33;101626.66;;;30.58;44.95
63090;BME280;49174;43.198;27.824;2023-06-24T08:43:59;101627.28;;;30.68;49.94
63090;BME280;49174;43.198;27.824;2023-06-24T08:46:24;101628.19;;;30.64;44.63
63090;BME280;49174;43.198;27.824;2023-06-24T08:48:59;101627.47;;;30.58;45.40
63090;BME280;49174;43.198;27.824;2023-06-24T08:51:29;101622.09;;;30.89;46.16
63090;BME280;49174;43.198;27.824;2023-06-24T08:53:58;101625.19;;;30.88;45.86
63090;BME280;49174;43.198;27.824;2023-06-24T08:56:24;101624.59;;;30.22;50.48
63090;BME280;49174;43.198;27.824;2023-06-24T08:58:50;101633.06;;;30.58;52.03
63090;BME280;49174;43.198;27.824;2023-06-24T09:01:17;101627.00;;;31.06;48.02
63090;BME280;49174;43.198;27.824;2023-06-24T09:03:42;101634.13;;;31.12;48.64
63090;BME280;49174;43.198;27.824;2023-06-24T09:06:08;101633.38;;;30.84;51.35
63090;BME280;49174;43.198;27.824;2023-06-24T09:08:33;101633.81;;;31.00;49.04
63090;BME280;49174;43.198;27.824;2023-06-24T09:11:01;101631.97;;;31.09;49.21
63090;BME280;49174;43.198;27.824;2023-06-24T09:13:35;101626.53;;;30.21;51.69
63090;BME280;49174;43.198;27.824;2023-06-24T09:16:14;101631.22;;;30.26;52.68
63090;BME280;49174;43.198;27.824;2023-06-24T09:18:39;101624.16;;;30.70;49.65
63090;BME280;49174;43.198;27.824;2023-06-24T09:21:05;101624.69;;;30.86;43.80
63090;BME280;49174;43.198;27.824;2023-06-24T09:23:35;101636.91;;;31.12;44.06
63090;BME280;49174;43.198;27.824;2023-06-24T09:26:01;101628.59;;;30.99;39.17
63090;BME280;49174;43.198;27.824;2023-06-24T09:28:27;101625.53;;;31.09;39.82
63090;BME280;49174;43.198;27.824;2023-06-24T09:33:31;101632.28;;;31.30;38.43
63090;BME280;49174;43.198;27.824;2023-06-24T09:35:57;101632.47;;;31.34;38.03
63090;BME280;49174;43.198;27.824;2023-06-24T09:38:33;101630.94;;;31.42;37.60
63090;BME280;49174;43.198;27.824;2023-06-24T09:41:03;101626.75;;;31.53;38.22
63090;BME280;49174;43.198;27.824;2023-06-24T09:43:30;101625.47;;;31.59;38.32
63090;BME280;49174;43.198;27.824;2023-06-24T09:45:57;101622.09;;;31.93;38.16
63090;BME280;49174;43.198;27.824;2023-06-24T09:48:24;101618.72;;;31.51;35.40
63090;BME280;49174;43.198;27.824;2023-06-24T09:50:49;101622.25;;;31.43;35.87
63090;BME280;49174;43.198;27.824;2023-06-24T09:53:15;101620.78;;;31.68;38.46
63090;BME280;49174;43.198;27.824;2023-06-24T09:55:42;101617.75;;;31.87;36.53
63090;BME280;49174;43.198;27.824;2023-06-24T09:58:10;101617.69;;;32.01;36.49
63090;BME280;49174;43.198;27.824;2023-06-24T10:00:36;101619.41;;;32.19;36.39
63090;BME280;49174;43.198;27.824;2023-06-24T10:03:02;101614.69;;;32.37;35.32
63090;BME280;49174;43.198;27.824;2023-06-24T10:05:28;101607.88;;;32.12;37.67
63090;BME280;49174;43.198;27.824;2023-06-24T10:07:54;101612.94;;;32.41;38.85
63090;BME280;49174;43.198;27.824;2023-06-24T10:10:19;101610.00;;;32.07;41.07
63090;BME280;49174;43.198;27.824;2023-06-24T10:12:45;101611.56;;;31.90;42.60
63090;BME280;49174;43.198;27.824;2023-06-24T10:15:10;101611.09;;;31.66;46.40
63090;BME280;49174;43.198;27.824;2023-06-24T10:17:37;101606.91;;;31.54;48.10
63090;BME280;49174;43.198;27.824;2023-06-24T10:20:06;101608.69;;;31.14;44.72
63090;BME280;49174;43.198;27.824;2023-06-24T10:22:32;101614.03;;;31.24;49.83
63090;BME280;49174;43.198;27.824;2023-06-24T10:25:01;101621.72;;;31.19;50.26
63090;BME280;49174;43.198;27.824;2023-06-24T10:27:27;101620.81;;;31.46;50.71
63090;BME280;49174;43.198;27.824;2023-06-24T10:30:03;101607.16;;;31.44;44.98
63090;BME280;49174;43.198;27.824;2023-06-24T10:32:42;101612.53;;;31.18;49.00
63090;BME280;49174;43.198;27.824;2023-06-24T10:35:21;101606.63;;;30.69;48.46
63090;BME280;49174;43.198;27.824;2023-06-24T10:37:54;101608.41;;;31.15;47.28
63090;BME280;49174;43.198;27.824;2023-06-24T10:40:42;101599.47;;;31.27;47.54
63090;BME280;49174;43.198;27.824;2023-06-24T10:43:23;101598.09;;;31.38;44.53
63090;BME280;49174;43.198;27.824;2023-06-24T10:45:57;101596.56;;;31.32;44.07
63090;BME280;49174;43.198;27.824;2023-06-24T10:48:24;101597.66;;;31.09;46.58
63090;BME280;49174;43.198;27.824;2023-06-24T10:50:50;101597.34;;;31.47;45.45
63090;BME280;49174;43.198;27.824;2023-06-24T10:53:16;101594.09;;;31.53;44.71
63090;BME280;49174;43.198;27.824;2023-06-24T10:55:44;101590.31;;;31.49;45.06
63090;BME280;49174;43.198;27.824;2023-06-24T10:58:12;101598.28;;;31.42;47.20
63090;BME280;49174;43.198;27.824;2023-06-24T11:00:39;101591.97;;;31.14;45.28
63090;BME280;49174;43.198;27.824;2023-06-24T11:03:13;101591.28;;;31.31;45.42
63090;BME280;49174;43.198;27.824;2023-06-24T11:05:42;101594.25;;;31.48;46.89
63090;BME280;49174;43.198;27.824;2023-06-24T11:08:08;101586.81;;;31.44;45.32
63090;BME280;49174;43.198;27.824;2023-06-24T11:10:50;101575.38;;;31.09;46.48
63090;BME280;49174;43.198;27.824;2023-06-24T11:13:20;101583.31;;;31.15;47.41
63090;BME280;49174;43.198;27.824;2023-06-24T11:15:45;101581.34;;;31.16;47.60
63090;BME280;49174;43.198;27.824;2023-06-24T11:18:11;101582.66;;;30.96;48.45
63090;BME280;49174;43.198;27.824;2023-06-24T11:20:40;101583.13;;;31.34;48.80
63090;BME280;49174;43.198;27.824;2023-06-24T11:23:09;101576.09;;;31.37;50.27
63090;BME280;49174;43.198;27.824;2023-06-24T11:25:42;101563.41;;;31.08;50.25
63090;BME280;49174;43.198;27.824;2023-06-24T11:28:13;101565.19;;;31.04;51.36
63090;BME280;49174;43.198;27.824;2023-06-24T11:30:39;101561.34;;;30.64;52.42
63090;BME280;49174;43.198;27.824;2023-06-24T11:33:04;101554.44;;;30.61;49.99
63090;BME280;49174;43.198;27.824;2023-06-24T11:35:29;101550.16;;;30.78;50.33
63090;BME280;49174;43.198;27.824;2023-06-24T11:38:00;101549.06;;;30.79;50.03
63090;BME280;49174;43.198;27.824;2023-06-24T11:40:26;101541.47;;;30.57;51.36
63090;BME280;49174;43.198;27.824;2023-06-24T11:42:51;101548.78;;;30.53;49.20
63090;BME280;49174;43.198;27.824;2023-06-24T11:45:20;101541.81;;;30.41;50.61
63090;BME280;49174;43.198;27.824;2023-06-24T11:47:46;101539.38;;;30.26;48.23
63090;BME280;49174;43.198;27.824;2023-06-24T11:50:13;101543.91;;;30.72;46.76
63090;BME280;49174;43.198;27.824;2023-06-24T11:52:46;101530.41;;;30.65;48.86
63090;BME280;49174;43.198;27.824;2023-06-24T11:55:24;101530.97;;;30.54;45.77
63090;BME280;49174;43.198;27.824;2023-06-24T11:58:01;101531.16;;;30.57;45.37
63090;BME280;49174;43.198;27.824;2023-06-24T12:02:54;101528.44;;;30.80;49.91
63090;BME280;49174;43.198;27.824;2023-06-24T12:05:28;101535.94;;;31.15;46.57
63090;BME280;49174;43.198;27.824;2023-06-24T12:07:54;101536.88;;;31.11;46.39
63090;BME280;49174;43.198;27.824;2023-06-24T12:10:21;101540.88;;;31.19;45.97
63090;BME280;49174;43.198;27.824;2023-06-24T12:12:48;101528.63;;;31.06;44.02
63090;BME280;49174;43.198;27.824;2023-06-24T12:15:13;101528.75;;;31.01;46.08
63090;BME280;49174;43.198;27.824;2023-06-24T12:17:39;101527.50;;;31.29;46.27
63090;BME280;49174;43.198;27.824;2023-06-24T12:20:05;101533.75;;;31.35;46.78
63090;BME280;49174;43.198;27.824;2023-06-24T12:22:31;101528.63;;;31.28;45.73
63090;BME280;49174;43.198;27.824;2023-06-24T12:24:56;101527.28;;;31.03;44.62
63090;BME280;49174;43.198;27.824;2023-06-24T12:27:23;101533.97;;;30.93;46.11
63090;BME280;49174;43.198;27.824;2023-06-24T12:29:49;101533.38;;;30.69;46.36
63090;BME280;49174;43.198;27.824;2023-06-24T12:32:14;101531.59;;;30.87;45.28
63090;BME280;49174;43.198;27.824;2023-06-24T12:34:40;101533.38;;;30.83;46.87
63090;BME280;49174;43.198;27.824;2023-06-24T12:37:07;101538.63;;;30.48;44.73
63090;BME280;49174;43.198;27.824;2023-06-24T12:39:33;101540.25;;;30.21;46.25
63090;BME280;49174;43.198;27.824;2023-06-24T12:41:59;101540.47;;;30.39;47.13
63090;BME280;49174;43.198;27.824;2023-06-24T12:44:24;101539.72;;;30.47;44.90
63090;BME280;49174;43.198;27.824;2023-06-24T12:46:50;101533.34;;;30.46;47.23
63090;BME280;49174;43.198;27.824;2023-06-24T12:49:15;101530.78;;;30.72;45.40
63090;BME280;49174;43.198;27.824;2023-06-24T12:51:41;101531.16;;;30.93;45.70
63090;BME280;49174;43.198;27.824;2023-06-24T12:54:06;101528.91;;;30.45;49.88
63090;BME280;49174;43.198;27.824;2023-06-24T12:56:32;101523.66;;;30.02;48.67
63090;BME280;49174;43.198;27.824;2023-06-24T12:58:57;101520.69;;;29.99;47.86
63090;BME280;49174;43.198;27.824;2023-06-24T13:01:23;101529.66;;;29.96;47.11